Prairieville, LA (70769)

1:35 PM CDT on August 04, 2015 (GMT -0500)
Seven Oaks | | Change Station
CLOSE
Current Station
Personal Weather Station
Location: Prairieville, LA
Elevation: 48 ft
Nearby Weather Stations
Active Advisory: Flood Warning

Elev 48 ft 30.29 °N, 90.97 °W | Updated 37 seconds ago

Partly Cloudy
Partly Cloudy
92.6 °F
Feels Like 104 °F
N
0.0
Wind Variable Wind from SSW
Gusts 3.0 mph

Today
High -- | Low -- °F
--% Chance of Precip.
Yesterday
High -- | Low -- °F
Precip. -- in
6:23 AM 7:55 PM
Waning Gibbous, 75% visible
Pressure 29.96 in
Visibility 10.0 miles
Clouds Mostly Cloudy 3600 ft
Heat Index 104 °F
Dew Point 75 °F
Humidity 57%
Rainfall 0.00 in
Snow Depth Not available.
UV 7 out of 12
Pollen 3.40 out of 12
Air Quality Not available.
Flu Activity Not available.
METAR KL38 041815Z AUTO 09004KT 10SM BKN036 33/24 A2996 RMK AO2 T03340237

More Conditions Fewer Conditions

Pressure 29.96 in
Visibility 10.0 miles
Clouds Mostly Cloudy 3600 ft
Heat Index 104 °F
Dew Point 75 °F
Humidity 57%
Rainfall 0.00 in
Snow Depth Not available.
UV 7 out of 12
Pollen 3.40 out of 12
Air Quality Not available.
Flu Activity Not available.
METAR KL38 041815Z AUTO 09004KT 10SM BKN036 33/24 A2996 RMK AO2 T03340237

More Conditions Fewer Conditions

10-Day Weather Forecast

×

Almanac

Astronomy

Aug. 04, 2015 Rise Set
Actual Time
Civil Twilight
Nautical Twilight
Astronomical Twilight
Moon
Length of Visible Light
Length of Day
Tomorrow will be .
, % of the Moon is Illuminated

Today's Extremes

State Highs State Lows

Community

WunderPhotos

Upload Photos

1,843,937 photos uploaded!

WunderBlogs® & News

Nearby

Air Quality

  Air Quality AQ Index Pollutant
Not available.

Snow Depth

Station Depth Elevation

Earthquake Activity

City Distance Mag. Time & Date
Minimum magnitude displayed is 2.5.

Coastal Water Temperatures

Place Temperature

Stations

Nearby Weather Stations

Station Location Temp. Windchill Dew Point Humidity Wind Precip. Elev Updated Type
                   
Flood Warning
Statement as of 11:08 AM CDT on August 04, 2015

The Flood Warning continues for
the Mississippi River at Donaldsonville.
* Until Wednesday evening.
* At 10:00 am Tuesday the stage was 27.1 feet.
* Minor flooding is occurring and minor flooding is forecast.
* Flood stage is 27.0 feet.
* Forecast... the river has already crested and is expected to fall
below flood stage by Wednesday evening August 5th.
* Impact... at 27.0 feet... navigation becomes difficult for smaller
river craft. Safety precautions for river traffic are urged.


Lat... Lon 3035 9113 3032 9130 3001 9087 3009 9079